sensor_id;sensor_type;location;lat;lon;timestamp;pressure;altitude;pressure_sealevel;temperature
18219;BMP180;9234;49.344;11.120;2023-07-13T00:01:15;97359.00;;;22.30
18219;BMP180;9234;49.344;11.120;2023-07-13T00:03:44;97354.00;;;22.30
18219;BMP180;9234;49.344;11.120;2023-07-13T00:06:13;97353.00;;;22.30
18219;BMP180;9234;49.344;11.120;2023-07-13T00:08:41;97342.00;;;22.30
18219;BMP180;9234;49.344;11.120;2023-07-13T00:11:09;97325.00;;;22.30
18219;BMP180;9234;49.344;11.120;2023-07-13T00:13:38;97326.00;;;22.30
18219;BMP180;9234;49.344;11.120;2023-07-13T00:16:08;97332.00;;;22.30
18219;BMP180;9234;49.344;11.120;2023-07-13T00:18:37;97330.00;;;22.30
18219;BMP180;9234;49.344;11.120;2023-07-13T00:21:06;97329.00;;;22.30
18219;BMP180;9234;49.344;11.120;2023-07-13T00:23:37;97333.00;;;22.20
18219;BMP180;9234;49.344;11.120;2023-07-13T00:26:09;97329.00;;;22.30
18219;BMP180;9234;49.344;11.120;2023-07-13T00:28:40;97342.00;;;22.30
18219;BMP180;9234;49.344;11.120;2023-07-13T00:31:12;97349.00;;;22.20
18219;BMP180;9234;49.344;11.120;2023-07-13T00:33:42;97342.00;;;22.20
18219;BMP180;9234;49.344;11.120;2023-07-13T00:36:11;97340.00;;;22.20
18219;BMP180;9234;49.344;11.120;2023-07-13T00:38:39;97346.00;;;22.20
18219;BMP180;9234;49.344;11.120;2023-07-13T00:41:08;97357.00;;;22.20
18219;BMP180;9234;49.344;11.120;2023-07-13T00:43:37;97352.00;;;22.20
18219;BMP180;9234;49.344;11.120;2023-07-13T00:46:24;97363.00;;;22.20
18219;BMP180;9234;49.344;11.120;2023-07-13T00:48:56;97366.00;;;22.20
18219;BMP180;9234;49.344;11.120;2023-07-13T00:51:32;97368.00;;;22.10
18219;BMP180;9234;49.344;11.120;2023-07-13T00:54:06;97364.00;;;22.10
18219;BMP180;9234;49.344;11.120;2023-07-13T00:56:39;97367.00;;;22.10
18219;BMP180;9234;49.344;11.120;2023-07-13T00:59:10;97354.00;;;22.10
18219;BMP180;9234;49.344;11.120;2023-07-13T01:01:40;97354.00;;;22.10
18219;BMP180;9234;49.344;11.120;2023-07-13T01:04:09;97347.00;;;22.00
18219;BMP180;9234;49.344;11.120;2023-07-13T01:06:39;97346.00;;;22.00
18219;BMP180;9234;49.344;11.120;2023-07-13T01:09:08;97352.00;;;21.90
18219;BMP180;9234;49.344;11.120;2023-07-13T01:11:39;97342.00;;;21.90
18219;BMP180;9234;49.344;11.120;2023-07-13T01:14:08;97365.00;;;21.80
18219;BMP180;9234;49.344;11.120;2023-07-13T01:16:40;97348.00;;;21.80
18219;BMP180;9234;49.344;11.120;2023-07-13T01:19:25;97351.00;;;21.70
18219;BMP180;9234;49.344;11.120;2023-07-13T01:22:07;97356.00;;;21.70
18219;BMP180;9234;49.344;11.120;2023-07-13T01:24:40;97354.00;;;21.60
18219;BMP180;9234;49.344;11.120;2023-07-13T01:27:12;97347.00;;;21.60
18219;BMP180;9234;49.344;11.120;2023-07-13T01:29:43;97354.00;;;21.50
18219;BMP180;9234;49.344;11.120;2023-07-13T01:32:17;97344.00;;;21.50
18219;BMP180;9234;49.344;11.120;2023-07-13T01:34:54;97347.00;;;21.40
18219;BMP180;9234;49.344;11.120;2023-07-13T01:37:26;97336.00;;;21.40
18219;BMP180;9234;49.344;11.120;2023-07-13T01:39:54;97343.00;;;21.30
18219;BMP180;9234;49.344;11.120;2023-07-13T01:42:22;97337.00;;;21.30
18219;BMP180;9234;49.344;11.120;2023-07-13T01:44:51;97330.00;;;21.20
18219;BMP180;9234;49.344;11.120;2023-07-13T01:47:19;97338.00;;;21.10
18219;BMP180;9234;49.344;11.120;2023-07-13T01:49:48;97334.00;;;21.00
18219;BMP180;9234;49.344;11.120;2023-07-13T01:52:18;97330.00;;;21.00
18219;BMP180;9234;49.344;11.120;2023-07-13T01:54:48;97344.00;;;20.90
18219;BMP180;9234;49.344;11.120;2023-07-13T01:57:16;97339.00;;;20.80
18219;BMP180;9234;49.344;11.120;2023-07-13T01:59:45;97357.00;;;20.80
18219;BMP180;9234;49.344;11.120;2023-07-13T02:02:13;97361.00;;;20.70
18219;BMP180;9234;49.344;11.120;2023-07-13T02:04:41;97360.00;;;20.70
18219;BMP180;9234;49.344;11.120;2023-07-13T02:07:10;97353.00;;;20.60
18219;BMP180;9234;49.344;11.120;2023-07-13T02:09:38;97352.00;;;20.50
18219;BMP180;9234;49.344;11.120;2023-07-13T02:12:08;97348.00;;;20.40
18219;BMP180;9234;49.344;11.120;2023-07-13T02:14:37;97349.00;;;20.40
18219;BMP180;9234;49.344;11.120;2023-07-13T02:17:06;97346.00;;;20.40
18219;BMP180;9234;49.344;11.120;2023-07-13T02:19:34;97348.00;;;20.30
18219;BMP180;9234;49.344;11.120;2023-07-13T02:22:03;97345.00;;;20.30
18219;BMP180;9234;49.344;11.120;2023-07-13T02:24:32;97343.00;;;20.20
18219;BMP180;9234;49.344;11.120;2023-07-13T02:27:00;97348.00;;;20.20
18219;BMP180;9234;49.344;11.120;2023-07-13T02:29:30;97349.00;;;20.10
18219;BMP180;9234;49.344;11.120;2023-07-13T02:31:58;97347.00;;;20.10
18219;BMP180;9234;49.344;11.120;2023-07-13T02:34:26;97351.00;;;20.00
18219;BMP180;9234;49.344;11.120;2023-07-13T02:36:59;97354.00;;;19.90
18219;BMP180;9234;49.344;11.120;2023-07-13T02:39:30;97349.00;;;19.90
18219;BMP180;9234;49.344;11.120;2023-07-13T02:42:00;97364.00;;;19.80
18219;BMP180;9234;49.344;11.120;2023-07-13T02:44:31;97371.00;;;19.80
18219;BMP180;9234;49.344;11.120;2023-07-13T02:46:59;97362.00;;;19.80
18219;BMP180;9234;49.344;11.120;2023-07-13T02:49:27;97370.00;;;19.80
18219;BMP180;9234;49.344;11.120;2023-07-13T02:51:56;97365.00;;;19.70
18219;BMP180;9234;49.344;11.120;2023-07-13T02:54:24;97372.00;;;19.70
18219;BMP180;9234;49.344;11.120;2023-07-13T02:56:52;97368.00;;;19.60
18219;BMP180;9234;49.344;11.120;2023-07-13T02:59:21;97374.00;;;19.60
18219;BMP180;9234;49.344;11.120;2023-07-13T03:01:51;97375.00;;;19.50
18219;BMP180;9234;49.344;11.120;2023-07-13T03:04:19;97383.00;;;19.50
18219;BMP180;9234;49.344;11.120;2023-07-13T03:06:47;97380.00;;;19.40
18219;BMP180;9234;49.344;11.120;2023-07-13T03:09:16;97385.00;;;19.40
18219;BMP180;9234;49.344;11.120;2023-07-13T03:11:53;97378.00;;;19.30
18219;BMP180;9234;49.344;11.120;2023-07-13T03:14:28;97390.00;;;19.30
18219;BMP180;9234;49.344;11.120;2023-07-13T03:17:00;97398.00;;;19.30
18219;BMP180;9234;49.344;11.120;2023-07-13T03:19:31;97397.00;;;19.20
18219;BMP180;9234;49.344;11.120;2023-07-13T03:22:00;97404.00;;;19.20
18219;BMP180;9234;49.344;11.120;2023-07-13T03:24:29;97407.00;;;19.10
18219;BMP180;9234;49.344;11.120;2023-07-13T03:26:57;97401.00;;;19.10
18219;BMP180;9234;49.344;11.120;2023-07-13T03:29:26;97417.00;;;19.00
18219;BMP180;9234;49.344;11.120;2023-07-13T03:31:55;97411.00;;;19.00
18219;BMP180;9234;49.344;11.120;2023-07-13T03:34:24;97424.00;;;19.00
18219;BMP180;9234;49.344;11.120;2023-07-13T03:36:54;97416.00;;;19.00
18219;BMP180;9234;49.344;11.120;2023-07-13T03:39:24;97425.00;;;18.90
18219;BMP180;9234;49.344;11.120;2023-07-13T03:41:54;97413.00;;;18.90
18219;BMP180;9234;49.344;11.120;2023-07-13T03:44:23;97424.00;;;18.90
18219;BMP180;9234;49.344;11.120;2023-07-13T03:46:56;97431.00;;;18.80
18219;BMP180;9234;49.344;11.120;2023-07-13T03:49:26;97432.00;;;18.80
18219;BMP180;9234;49.344;11.120;2023-07-13T03:51:54;97430.00;;;18.80
18219;BMP180;9234;49.344;11.120;2023-07-13T03:54:22;97439.00;;;18.70
18219;BMP180;9234;49.344;11.120;2023-07-13T03:56:51;97447.00;;;18.70
18219;BMP180;9234;49.344;11.120;2023-07-13T03:59:21;97447.00;;;18.70
18219;BMP180;9234;49.344;11.120;2023-07-13T04:01:49;97439.00;;;18.60
18219;BMP180;9234;49.344;11.120;2023-07-13T04:04:17;97457.00;;;18.70
18219;BMP180;9234;49.344;11.120;2023-07-13T04:06:47;97459.00;;;18.70
18219;BMP180;9234;49.344;11.120;2023-07-13T04:09:15;97467.00;;;18.60
18219;BMP180;9234;49.344;11.120;2023-07-13T04:11:44;97470.00;;;18.70
18219;BMP180;9234;49.344;11.120;2023-07-13T04:14:12;97448.00;;;18.70
18219;BMP180;9234;49.344;11.120;2023-07-13T04:16:41;97454.00;;;18.70
18219;BMP180;9234;49.344;11.120;2023-07-13T04:19:10;97460.00;;;18.70
18219;BMP180;9234;49.344;11.120;2023-07-13T04:21:38;97461.00;;;18.70
18219;BMP180;9234;49.344;11.120;2023-07-13T04:24:08;97471.00;;;18.70
18219;BMP180;9234;49.344;11.120;2023-07-13T04:26:36;97464.00;;;18.70
18219;BMP180;9234;49.344;11.120;2023-07-13T04:29:06;97458.00;;;18.70
18219;BMP180;9234;49.344;11.120;2023-07-13T04:31:34;97465.00;;;18.70
18219;BMP180;9234;49.344;11.120;2023-07-13T04:34:03;97461.00;;;18.60
18219;BMP180;9234;49.344;11.120;2023-07-13T04:36:31;97458.00;;;18.60
18219;BMP180;9234;49.344;11.120;2023-07-13T04:39:00;97459.00;;;18.60
18219;BMP180;9234;49.344;11.120;2023-07-13T04:41:29;97461.00;;;18.70
18219;BMP180;9234;49.344;11.120;2023-07-13T04:43:58;97468.00;;;18.70
18219;BMP180;9234;49.344;11.120;2023-07-13T04:46:26;97461.00;;;18.70
18219;BMP180;9234;49.344;11.120;2023-07-13T04:48:55;97461.00;;;18.70
18219;BMP180;9234;49.344;11.120;2023-07-13T04:51:24;97472.00;;;18.80
18219;BMP180;9234;49.344;11.120;2023-07-13T04:53:53;97472.00;;;18.80
18219;BMP180;9234;49.344;11.120;2023-07-13T04:56:28;97467.00;;;18.90
18219;BMP180;9234;49.344;11.120;2023-07-13T04:58:57;97474.00;;;18.90
18219;BMP180;9234;49.344;11.120;2023-07-13T05:01:25;97472.00;;;19.00
18219;BMP180;9234;49.344;11.120;2023-07-13T05:03:54;97482.00;;;19.00
18219;BMP180;9234;49.344;11.120;2023-07-13T05:06:25;97474.00;;;19.10
18219;BMP180;9234;49.344;11.120;2023-07-13T05:08:54;97479.00;;;19.10
18219;BMP180;9234;49.344;11.120;2023-07-13T05:11:22;97484.00;;;19.10
18219;BMP180;9234;49.344;11.120;2023-07-13T05:13:51;97486.00;;;19.20
18219;BMP180;9234;49.344;11.120;2023-07-13T05:16:20;97491.00;;;19.20
18219;BMP180;9234;49.344;11.120;2023-07-13T05:18:48;97495.00;;;19.20
18219;BMP180;9234;49.344;11.120;2023-07-13T05:21:16;97486.00;;;19.30
18219;BMP180;9234;49.344;11.120;2023-07-13T05:23:45;97494.00;;;19.40
18219;BMP180;9234;49.344;11.120;2023-07-13T05:26:13;97493.00;;;19.50
18219;BMP180;9234;49.344;11.120;2023-07-13T05:28:42;97515.00;;;19.60
18219;BMP180;9234;49.344;11.120;2023-07-13T05:31:11;97499.00;;;19.70
18219;BMP180;9234;49.344;11.120;2023-07-13T05:33:40;97499.00;;;19.80
18219;BMP180;9234;49.344;11.120;2023-07-13T05:36:09;97512.00;;;20.00
18219;BMP180;9234;49.344;11.120;2023-07-13T05:38:37;97496.00;;;20.10
18219;BMP180;9234;49.344;11.120;2023-07-13T05:41:07;97503.00;;;20.20
18219;BMP180;9234;49.344;11.120;2023-07-13T05:43:35;97522.00;;;20.30
18219;BMP180;9234;49.344;11.120;2023-07-13T05:46:04;97519.00;;;20.40
18219;BMP180;9234;49.344;11.120;2023-07-13T05:48:33;97533.00;;;20.50
18219;BMP180;9234;49.344;11.120;2023-07-13T05:51:02;97521.00;;;20.50
18219;BMP180;9234;49.344;11.120;2023-07-13T05:53:30;97527.00;;;20.60
18219;BMP180;9234;49.344;11.120;2023-07-13T05:55:59;97523.00;;;20.70
18219;BMP180;9234;49.344;11.120;2023-07-13T05:58:29;97532.00;;;20.70
18219;BMP180;9234;49.344;11.120;2023-07-13T06:01:03;97531.00;;;20.80
18219;BMP180;9234;49.344;11.120;2023-07-13T06:03:33;97528.00;;;20.90
18219;BMP180;9234;49.344;11.120;2023-07-13T06:06:02;97529.00;;;20.90
18219;BMP180;9234;49.344;11.120;2023-07-13T06:08:31;97533.00;;;20.90
18219;BMP180;9234;49.344;11.120;2023-07-13T06:11:04;97533.00;;;20.90
18219;BMP180;9234;49.344;11.120;2023-07-13T06:13:33;97533.00;;;21.00
18219;BMP180;9234;49.344;11.120;2023-07-13T06:16:03;97533.00;;;21.00
18219;BMP180;9234;49.344;11.120;2023-07-13T06:18:34;97537.00;;;21.10
18219;BMP180;9234;49.344;11.120;2023-07-13T06:21:07;97538.00;;;21.20
18219;BMP180;9234;49.344;11.120;2023-07-13T06:23:36;97531.00;;;21.20
18219;BMP180;9234;49.344;11.120;2023-07-13T06:26:06;97536.00;;;21.30
18219;BMP180;9234;49.344;11.120;2023-07-13T06:28:36;97529.00;;;21.40
18219;BMP180;9234;49.344;11.120;2023-07-13T06:31:09;97539.00;;;21.50
18219;BMP180;9234;49.344;11.120;2023-07-13T06:33:39;97540.00;;;21.70
18219;BMP180;9234;49.344;11.120;2023-07-13T06:36:08;97545.00;;;21.80
18219;BMP180;9234;49.344;11.120;2023-07-13T06:38:38;97553.00;;;21.90
18219;BMP180;9234;49.344;11.120;2023-07-13T06:41:07;97551.00;;;22.00
18219;BMP180;9234;49.344;11.120;2023-07-13T06:43:37;97558.00;;;22.00
18219;BMP180;9234;49.344;11.120;2023-07-13T06:46:05;97553.00;;;22.00
18219;BMP180;9234;49.344;11.120;2023-07-13T06:48:34;97547.00;;;22.00
18219;BMP180;9234;49.344;11.120;2023-07-13T06:51:04;97555.00;;;22.00
18219;BMP180;9234;49.344;11.120;2023-07-13T06:53:32;97554.00;;;22.00
18219;BMP180;9234;49.344;11.120;2023-07-13T06:56:01;97551.00;;;22.00
18219;BMP180;9234;49.344;11.120;2023-07-13T06:58:30;97563.00;;;22.10
18219;BMP180;9234;49.344;11.120;2023-07-13T07:00:59;97556.00;;;22.10
18219;BMP180;9234;49.344;11.120;2023-07-13T07:03:27;97563.00;;;22.10
18219;BMP180;9234;49.344;11.120;2023-07-13T07:06:01;97568.00;;;22.10
18219;BMP180;9234;49.344;11.120;2023-07-13T07:08:31;97562.00;;;22.20
18219;BMP180;9234;49.344;11.120;2023-07-13T07:10:59;97574.00;;;22.30
18219;BMP180;9234;49.344;11.120;2023-07-13T07:13:27;97574.00;;;22.40
18219;BMP180;9234;49.344;11.120;2023-07-13T07:15:57;97582.00;;;22.40
18219;BMP180;9234;49.344;11.120;2023-07-13T07:18:27;97573.00;;;22.40
18219;BMP180;9234;49.344;11.120;2023-07-13T07:20:55;97585.00;;;22.50
18219;BMP180;9234;49.344;11.120;2023-07-13T07:23:23;97585.00;;;22.50
18219;BMP180;9234;49.344;11.120;2023-07-13T07:25:53;97579.00;;;22.60
18219;BMP180;9234;49.344;11.120;2023-07-13T07:28:21;97583.00;;;22.70
18219;BMP180;9234;49.344;11.120;2023-07-13T07:30:55;97580.00;;;22.90
18219;BMP180;9234;49.344;11.120;2023-07-13T07:33:26;97583.00;;;23.00
18219;BMP180;9234;49.344;11.120;2023-07-13T07:35:55;97592.00;;;23.20
18219;BMP180;9234;49.344;11.120;2023-07-13T07:38:26;97589.00;;;23.30
18219;BMP180;9234;49.344;11.120;2023-07-13T07:40:56;97594.00;;;23.30
18219;BMP180;9234;49.344;11.120;2023-07-13T07:43:27;97593.00;;;23.50
18219;BMP180;9234;49.344;11.120;2023-07-13T07:45:55;97600.00;;;23.50
18219;BMP180;9234;49.344;11.120;2023-07-13T07:48:25;97594.00;;;23.50
18219;BMP180;9234;49.344;11.120;2023-07-13T07:50:53;97608.00;;;23.40
18219;BMP180;9234;49.344;11.120;2023-07-13T07:53:22;97608.00;;;23.30
18219;BMP180;9234;49.344;11.120;2023-07-13T07:55:50;97596.00;;;23.20
18219;BMP180;9234;49.344;11.120;2023-07-13T07:58:23;97601.00;;;23.40
18219;BMP180;9234;49.344;11.120;2023-07-13T08:01:02;97613.00;;;23.40
18219;BMP180;9234;49.344;11.120;2023-07-13T08:03:33;97607.00;;;23.60
18219;BMP180;9234;49.344;11.120;2023-07-13T08:06:05;97614.00;;;23.70
18219;BMP180;9234;49.344;11.120;2023-07-13T08:08:36;97603.00;;;23.70
18219;BMP180;9234;49.344;11.120;2023-07-13T08:11:05;97617.00;;;23.70
18219;BMP180;9234;49.344;11.120;2023-07-13T08:13:39;97617.00;;;23.80
18219;BMP180;9234;49.344;11.120;2023-07-13T08:16:07;97625.00;;;23.80
18219;BMP180;9234;49.344;11.120;2023-07-13T08:18:36;97617.00;;;23.90
18219;BMP180;9234;49.344;11.120;2023-07-13T08:21:05;97620.00;;;23.90
18219;BMP180;9234;49.344;11.120;2023-07-13T08:23:35;97619.00;;;24.00
18219;BMP180;9234;49.344;11.120;2023-07-13T08:26:03;97617.00;;;24.10
18219;BMP180;9234;49.344;11.120;2023-07-13T08:28:33;97625.00;;;24.20
18219;BMP180;9234;49.344;11.120;2023-07-13T08:31:04;97626.00;;;24.30
18219;BMP180;9234;49.344;11.120;2023-07-13T08:33:34;97623.00;;;24.40
18219;BMP180;9234;49.344;11.120;2023-07-13T08:36:03;97631.00;;;24.60
18219;BMP180;9234;49.344;11.120;2023-07-13T08:38:33;97628.00;;;24.70
18219;BMP180;9234;49.344;11.120;2023-07-13T08:41:11;97633.00;;;24.70
18219;BMP180;9234;49.344;11.120;2023-07-13T08:43:43;97614.00;;;24.80
18219;BMP180;9234;49.344;11.120;2023-07-13T08:46:19;97633.00;;;24.80
18219;BMP180;9234;49.344;11.120;2023-07-13T08:48:52;97635.00;;;24.90
18219;BMP180;9234;49.344;11.120;2023-07-13T08:51:41;97634.00;;;25.00
18219;BMP180;9234;49.344;11.120;2023-07-13T08:54:24;97635.00;;;25.20
18219;BMP180;9234;49.344;11.120;2023-07-13T08:56:57;97634.00;;;25.40
18219;BMP180;9234;49.344;11.120;2023-07-13T08:59:31;97644.00;;;25.60
18219;BMP180;9234;49.344;11.120;2023-07-13T09:02:23;97633.00;;;25.60
18219;BMP180;9234;49.344;11.120;2023-07-13T09:04:59;97634.00;;;25.60
18219;BMP180;9234;49.344;11.120;2023-07-13T09:07:56;97636.00;;;25.60
18219;BMP180;9234;49.344;11.120;2023-07-13T09:10:30;97649.00;;;25.70
18219;BMP180;9234;49.344;11.120;2023-07-13T09:13:15;97641.00;;;25.70
18219;BMP180;9234;49.344;11.120;2023-07-13T09:15:49;97649.00;;;25.60
18219;BMP180;9234;49.344;11.120;2023-07-13T09:18:27;97640.00;;;25.60
18219;BMP180;9234;49.344;11.120;2023-07-13T09:21:00;97650.00;;;25.60
18219;BMP180;9234;49.344;11.120;2023-07-13T09:23:31;97649.00;;;25.50
18219;BMP180;9234;49.344;11.120;2023-07-13T09:26:06;97656.00;;;25.40
18219;BMP180;9234;49.344;11.120;2023-07-13T09:28:42;97660.00;;;25.50
18219;BMP180;9234;49.344;11.120;2023-07-13T09:31:16;97660.00;;;25.50
18219;BMP180;9234;49.344;11.120;2023-07-13T09:33:46;97657.00;;;25.50
18219;BMP180;9234;49.344;11.120;2023-07-13T09:36:22;97652.00;;;25.50
18219;BMP180;9234;49.344;11.120;2023-07-13T09:39:02;97653.00;;;25.50
18219;BMP180;9234;49.344;11.120;2023-07-13T09:41:40;97663.00;;;25.40
18219;BMP180;9234;49.344;11.120;2023-07-13T09:44:11;97654.00;;;25.40
18219;BMP180;9234;49.344;11.120;2023-07-13T09:46:45;97654.00;;;25.50
18219;BMP180;9234;49.344;11.120;2023-07-13T09:49:17;97649.00;;;25.60
18219;BMP180;9234;49.344;11.120;2023-07-13T09:51:45;97639.00;;;25.80
18219;BMP180;9234;49.344;11.120;2023-07-13T09:54:19;97646.00;;;26.10
18219;BMP180;9234;49.344;11.120;2023-07-13T09:56:53;97642.00;;;26.60
18219;BMP180;9234;49.344;11.120;2023-07-13T09:59:26;97646.00;;;26.90
18219;BMP180;9234;49.344;11.120;2023-07-13T10:01:55;97649.00;;;27.20
18219;BMP180;9234;49.344;11.120;2023-07-13T10:04:32;97652.00;;;27.50
18219;BMP180;9234;49.344;11.120;2023-07-13T10:07:12;97642.00;;;27.50
18219;BMP180;9234;49.344;11.120;2023-07-13T10:09:58;97633.00;;;27.60
18219;BMP180;9234;49.344;11.120;2023-07-13T10:12:30;97641.00;;;27.70
18219;BMP180;9234;49.344;11.120;2023-07-13T10:15:13;97639.00;;;27.50
18219;BMP180;9234;49.344;11.120;2023-07-13T10:17:51;97644.00;;;27.50
18219;BMP180;9234;49.344;11.120;2023-07-13T10:20:25;97659.00;;;27.60
18219;BMP180;9234;49.344;11.120;2023-07-13T10:22:59;97647.00;;;27.90
18219;BMP180;9234;49.344;11.120;2023-07-13T10:25:33;97661.00;;;28.00
18219;BMP180;9234;49.344;11.120;2023-07-13T10:28:14;97667.00;;;28.20
18219;BMP180;9234;49.344;11.120;2023-07-13T10:30:49;97669.00;;;28.40
18219;BMP180;9234;49.344;11.120;2023-07-13T10:33:21;97672.00;;;28.60
18219;BMP180;9234;49.344;11.120;2023-07-13T10:36:11;97669.00;;;28.90
18219;BMP180;9234;49.344;11.120;2023-07-13T10:38:45;97664.00;;;29.20
18219;BMP180;9234;49.344;11.120;2023-07-13T10:41:20;97654.00;;;29.30
18219;BMP180;9234;49.344;11.120;2023-07-13T10:43:53;97659.00;;;29.00
18219;BMP180;9234;49.344;11.120;2023-07-13T10:46:28;97657.00;;;28.70
18219;BMP180;9234;49.344;11.120;2023-07-13T10:49:02;97665.00;;;28.50
18219;BMP180;9234;49.344;11.120;2023-07-13T10:51:34;97660.00;;;28.60
18219;BMP180;9234;49.344;11.120;2023-07-13T10:54:21;97658.00;;;28.90
18219;BMP180;9234;49.344;11.120;2023-07-13T10:56:53;97660.00;;;29.20
18219;BMP180;9234;49.344;11.120;2023-07-13T10:59:35;97654.00;;;29.30
18219;BMP180;9234;49.344;11.120;2023-07-13T11:02:20;97660.00;;;29.30
18219;BMP180;9234;49.344;11.120;2023-07-13T11:04:54;97660.00;;;29.30
18219;BMP180;9234;49.344;11.120;2023-07-13T11:07:27;97658.00;;;29.40
18219;BMP180;9234;49.344;11.120;2023-07-13T11:09:58;97655.00;;;29.70
18219;BMP180;9234;49.344;11.120;2023-07-13T11:12:52;97646.00;;;29.90
18219;BMP180;9234;49.344;11.120;2023-07-13T11:15:42;97634.00;;;29.90
18219;BMP180;9234;49.344;11.120;2023-07-13T11:18:22;97635.00;;;29.70
18219;BMP180;9234;49.344;11.120;2023-07-13T11:21:12;97641.00;;;29.60
18219;BMP180;9234;49.344;11.120;2023-07-13T11:24:14;97644.00;;;29.70
18219;BMP180;9234;49.344;11.120;2023-07-13T11:26:52;97641.00;;;29.90
18219;BMP180;9234;49.344;11.120;2023-07-13T11:29:33;97622.00;;;30.00
18219;BMP180;9234;49.344;11.120;2023-07-13T11:32:24;97633.00;;;30.50
18219;BMP180;9234;49.344;11.120;2023-07-13T11:34:54;97640.00;;;30.80
18219;BMP180;9234;49.344;11.120;2023-07-13T11:37:24;97640.00;;;31.10
18219;BMP180;9234;49.344;11.120;2023-07-13T11:39:54;97630.00;;;31.60
18219;BMP180;9234;49.344;11.120;2023-07-13T11:42:22;97630.00;;;31.80
18219;BMP180;9234;49.344;11.120;2023-07-13T11:44:52;97628.00;;;31.90
18219;BMP180;9234;49.344;11.120;2023-07-13T11:47:40;97638.00;;;31.70
18219;BMP180;9234;49.344;11.120;2023-07-13T11:50:19;97638.00;;;31.30
18219;BMP180;9234;49.344;11.120;2023-07-13T11:52:50;97636.00;;;31.20
18219;BMP180;9234;49.344;11.120;2023-07-13T11:55:23;97643.00;;;31.10
18219;BMP180;9234;49.344;11.120;2023-07-13T11:57:58;97639.00;;;31.10
18219;BMP180;9234;49.344;11.120;2023-07-13T12:00:31;97641.00;;;31.40
18219;BMP180;9234;49.344;11.120;2023-07-13T12:03:03;97639.00;;;31.80
18219;BMP180;9234;49.344;11.120;2023-07-13T12:05:32;97633.00;;;32.10
18219;BMP180;9234;49.344;11.120;2023-07-13T12:08:09;97636.00;;;32.20
18219;BMP180;9234;49.344;11.120;2023-07-13T12:11:04;97644.00;;;32.10
18219;BMP180;9234;49.344;11.120;2023-07-13T12:13:37;97645.00;;;31.70
18219;BMP180;9234;49.344;11.120;2023-07-13T12:16:17;97630.00;;;31.40
18219;BMP180;9234;49.344;11.120;2023-07-13T12:18:53;97638.00;;;31.60
18219;BMP180;9234;49.344;11.120;2023-07-13T12:21:31;97627.00;;;31.90
18219;BMP180;9234;49.344;11.120;2023-07-13T12:24:01;97628.00;;;32.20
18219;BMP180;9234;49.344;11.120;2023-07-13T12:26:32;97625.00;;;32.20
18219;BMP180;9234;49.344;11.120;2023-07-13T12:29:05;97619.00;;;32.00
18219;BMP180;9234;49.344;11.120;2023-07-13T12:31:37;97624.00;;;32.30
18219;BMP180;9234;49.344;11.120;2023-07-13T12:34:09;97620.00;;;32.50
18219;BMP180;9234;49.344;11.120;2023-07-13T12:36:46;97630.00;;;32.60
18219;BMP180;9234;49.344;11.120;2023-07-13T12:39:19;97625.00;;;32.40
18219;BMP180;9234;49.344;11.120;2023-07-13T12:41:53;97629.00;;;32.20
18219;BMP180;9234;49.344;11.120;2023-07-13T12:44:28;97621.00;;;32.10
18219;BMP180;9234;49.344;11.120;2023-07-13T12:47:03;97627.00;;;32.20
18219;BMP180;9234;49.344;11.120;2023-07-13T12:49:33;97621.00;;;32.40
18219;BMP180;9234;49.344;11.120;2023-07-13T12:52:12;97625.00;;;32.40
18219;BMP180;9234;49.344;11.120;2023-07-13T12:54:52;97611.00;;;32.70
18219;BMP180;9234;49.344;11.120;2023-07-13T12:57:40;97624.00;;;33.00
18219;BMP180;9234;49.344;11.120;2023-07-13T13:00:28;97625.00;;;33.30
18219;BMP180;9234;49.344;11.120;2023-07-13T13:03:05;97623.00;;;33.70
18219;BMP180;9234;49.344;11.120;2023-07-13T13:05:41;97617.00;;;34.00
18219;BMP180;9234;49.344;11.120;2023-07-13T13:08:13;97627.00;;;33.90
18219;BMP180;9234;49.344;11.120;2023-07-13T13:10:41;97615.00;;;33.30
18219;BMP180;9234;49.344;11.120;2023-07-13T13:13:11;97619.00;;;32.70
18219;BMP180;9234;49.344;11.120;2023-07-13T13:15:39;97602.00;;;32.60
18219;BMP180;9234;49.344;11.120;2023-07-13T13:18:16;97611.00;;;33.60
18219;BMP180;9234;49.344;11.120;2023-07-13T13:20:46;97601.00;;;33.90
18219;BMP180;9234;49.344;11.120;2023-07-13T13:23:17;97611.00;;;34.10
18219;BMP180;9234;49.344;11.120;2023-07-13T13:25:48;97612.00;;;33.80
18219;BMP180;9234;49.344;11.120;2023-07-13T13:28:20;97615.00;;;33.00
18219;BMP180;9234;49.344;11.120;2023-07-13T13:30:50;97614.00;;;33.00
18219;BMP180;9234;49.344;11.120;2023-07-13T13:33:21;97620.00;;;33.90
18219;BMP180;9234;49.344;11.120;2023-07-13T13:35:50;97611.00;;;33.50
18219;BMP180;9234;49.344;11.120;2023-07-13T13:38:24;97612.00;;;32.70
18219;BMP180;9234;49.344;11.120;2023-07-13T13:40:53;97615.00;;;32.50
18219;BMP180;9234;49.344;11.120;2023-07-13T13:43:25;97615.00;;;32.60
18219;BMP180;9234;49.344;11.120;2023-07-13T13:45:58;97602.00;;;32.30
18219;BMP180;9234;49.344;11.120;2023-07-13T13:48:32;97597.00;;;32.70
18219;BMP180;9234;49.344;11.120;2023-07-13T13:51:11;97610.00;;;32.50
18219;BMP180;9234;49.344;11.120;2023-07-13T13:53:40;97599.00;;;31.90
18219;BMP180;9234;49.344;11.120;2023-07-13T13:56:09;97603.00;;;31.40
18219;BMP180;9234;49.344;11.120;2023-07-13T13:58:40;97615.00;;;31.20
18219;BMP180;9234;49.344;11.120;2023-07-13T14:01:13;97606.00;;;31.80
18219;BMP180;9234;49.344;11.120;2023-07-13T14:03:45;97603.00;;;33.20
18219;BMP180;9234;49.344;11.120;2023-07-13T14:06:16;97612.00;;;33.80
18219;BMP180;9234;49.344;11.120;2023-07-13T14:08:44;97608.00;;;33.70
18219;BMP180;9234;49.344;11.120;2023-07-13T14:11:17;97613.00;;;33.80
18219;BMP180;9234;49.344;11.120;2023-07-13T14:13:50;97613.00;;;34.90
18219;BMP180;9234;49.344;11.120;2023-07-13T14:16:22;97607.00;;;35.80
18219;BMP180;9234;49.344;11.120;2023-07-13T14:18:51;97619.00;;;36.50
18219;BMP180;9234;49.344;11.120;2023-07-13T14:21:22;97609.00;;;37.20
18219;BMP180;9234;49.344;11.120;2023-07-13T14:23:50;97622.00;;;37.80
18219;BMP180;9234;49.344;11.120;2023-07-13T14:26:21;97630.00;;;38.30
18219;BMP180;9234;49.344;11.120;2023-07-13T14:28:55;97617.00;;;38.60
18219;BMP180;9234;49.344;11.120;2023-07-13T14:31:27;97620.00;;;38.70
18219;BMP180;9234;49.344;11.120;2023-07-13T14:33:57;97616.00;;;38.60
18219;BMP180;9234;49.344;11.120;2023-07-13T14:36:29;97625.00;;;38.90